sensor_id;sensor_type;location;lat;lon;timestamp;temperature;humidity
37204;DHT22;23098;48.054;10.636;2023-03-11T00:01:49;1.60;99.90
37204;DHT22;23098;48.054;10.636;2023-03-11T00:04:14;1.60;99.90
37204;DHT22;23098;48.054;10.636;2023-03-11T00:06:40;1.60;99.90
37204;DHT22;23098;48.054;10.636;2023-03-11T00:09:07;1.60;99.90
37204;DHT22;23098;48.054;10.636;2023-03-11T00:11:32;1.60;99.90
37204;DHT22;23098;48.054;10.636;2023-03-11T00:13:58;1.60;99.90
37204;DHT22;23098;48.054;10.636;2023-03-11T00:16:23;1.70;99.90
37204;DHT22;23098;48.054;10.636;2023-03-11T00:18:50;1.70;99.90
37204;DHT22;23098;48.054;10.636;2023-03-11T00:21:17;1.80;99.90
37204;DHT22;23098;48.054;10.636;2023-03-11T00:23:45;1.80;99.90
37204;DHT22;23098;48.054;10.636;2023-03-11T00:26:11;1.80;99.90
37204;DHT22;23098;48.054;10.636;2023-03-11T00:28:37;1.80;99.90
37204;DHT22;23098;48.054;10.636;2023-03-11T00:31:03;1.90;99.90
37204;DHT22;23098;48.054;10.636;2023-03-11T00:33:29;1.80;99.90
37204;DHT22;23098;48.054;10.636;2023-03-11T00:35:55;1.90;99.90
37204;DHT22;23098;48.054;10.636;2023-03-11T00:38:20;1.90;99.90
37204;DHT22;23098;48.054;10.636;2023-03-11T00:40:48;1.90;99.90
37204;DHT22;23098;48.054;10.636;2023-03-11T00:43:15;1.90;99.90
37204;DHT22;23098;48.054;10.636;2023-03-11T00:45:41;1.90;99.90
37204;DHT22;23098;48.054;10.636;2023-03-11T00:48:07;1.90;99.90
37204;DHT22;23098;48.054;10.636;2023-03-11T00:50:35;1.90;99.90
37204;DHT22;23098;48.054;10.636;2023-03-11T00:53:01;1.90;99.90
37204;DHT22;23098;48.054;10.636;2023-03-11T00:55:33;1.80;99.90
37204;DHT22;23098;48.054;10.636;2023-03-11T00:58:03;1.80;99.90
37204;DHT22;23098;48.054;10.636;2023-03-11T01:00:29;1.90;99.90
37204;DHT22;23098;48.054;10.636;2023-03-11T01:02:56;1.90;99.90
37204;DHT22;23098;48.054;10.636;2023-03-11T01:05:25;1.80;99.90
37204;DHT22;23098;48.054;10.636;2023-03-11T01:07:51;1.80;99.90
37204;DHT22;23098;48.054;10.636;2023-03-11T01:10:17;1.80;99.90
37204;DHT22;23098;48.054;10.636;2023-03-11T01:12:43;1.70;99.90
37204;DHT22;23098;48.054;10.636;2023-03-11T01:15:21;1.70;99.90
37204;DHT22;23098;48.054;10.636;2023-03-11T01:17:47;1.70;99.90
37204;DHT22;23098;48.054;10.636;2023-03-11T01:20:14;1.70;99.90
37204;DHT22;23098;48.054;10.636;2023-03-11T01:22:40;1.70;99.90
37204;DHT22;23098;48.054;10.636;2023-03-11T01:25:05;1.60;99.90
37204;DHT22;23098;48.054;10.636;2023-03-11T01:27:31;1.70;99.90
37204;DHT22;23098;48.054;10.636;2023-03-11T01:29:57;1.70;99.90
37204;DHT22;23098;48.054;10.636;2023-03-11T01:32:22;1.70;99.90
37204;DHT22;23098;48.054;10.636;2023-03-11T01:34:48;1.70;99.90
37204;DHT22;23098;48.054;10.636;2023-03-11T01:37:13;1.70;99.90
37204;DHT22;23098;48.054;10.636;2023-03-11T01:39:39;1.60;99.90
37204;DHT22;23098;48.054;10.636;2023-03-11T01:42:05;1.60;99.90
37204;DHT22;23098;48.054;10.636;2023-03-11T01:44:30;1.60;99.90
37204;DHT22;23098;48.054;10.636;2023-03-11T01:49:24;1.50;99.90
37204;DHT22;23098;48.054;10.636;2023-03-11T01:51:53;1.50;99.90
37204;DHT22;23098;48.054;10.636;2023-03-11T01:54:32;1.50;99.90
37204;DHT22;23098;48.054;10.636;2023-03-11T01:56:59;1.40;99.90
37204;DHT22;23098;48.054;10.636;2023-03-11T01:59:32;1.40;99.90
37204;DHT22;23098;48.054;10.636;2023-03-11T02:02:27;1.40;99.90
37204;DHT22;23098;48.054;10.636;2023-03-11T02:04:51;1.30;99.90
37204;DHT22;23098;48.054;10.636;2023-03-11T02:07:18;1.30;99.90
37204;DHT22;23098;48.054;10.636;2023-03-11T02:09:45;1.30;99.90
37204;DHT22;23098;48.054;10.636;2023-03-11T02:12:13;1.40;99.90
37204;DHT22;23098;48.054;10.636;2023-03-11T02:14:42;1.40;99.90
37204;DHT22;23098;48.054;10.636;2023-03-11T02:17:09;1.30;99.90
37204;DHT22;23098;48.054;10.636;2023-03-11T02:20:07;1.40;99.90
37204;DHT22;23098;48.054;10.636;2023-03-11T02:22:38;1.30;99.90
37204;DHT22;23098;48.054;10.636;2023-03-11T02:25:21;1.30;99.90
37204;DHT22;23098;48.054;10.636;2023-03-11T02:27:53;1.30;99.90
37204;DHT22;23098;48.054;10.636;2023-03-11T02:30:21;1.20;99.90
37204;DHT22;23098;48.054;10.636;2023-03-11T02:32:48;1.20;99.90
37204;DHT22;23098;48.054;10.636;2023-03-11T02:35:15;1.20;99.90
37204;DHT22;23098;48.054;10.636;2023-03-11T02:37:46;1.20;99.90
37204;DHT22;23098;48.054;10.636;2023-03-11T02:40:32;1.20;99.90
37204;DHT22;23098;48.054;10.636;2023-03-11T02:43:08;1.20;99.90
37204;DHT22;23098;48.054;10.636;2023-03-11T02:45:36;1.10;99.90
37204;DHT22;23098;48.054;10.636;2023-03-11T02:48:06;1.10;99.90
37204;DHT22;23098;48.054;10.636;2023-03-11T02:50:33;1.10;99.90
37204;DHT22;23098;48.054;10.636;2023-03-11T02:53:01;1.10;99.90
37204;DHT22;23098;48.054;10.636;2023-03-11T02:55:27;1.10;99.90
37204;DHT22;23098;48.054;10.636;2023-03-11T02:57:53;1.10;99.90
37204;DHT22;23098;48.054;10.636;2023-03-11T03:00:18;1.10;99.90
37204;DHT22;23098;48.054;10.636;2023-03-11T03:02:45;1.00;99.90
37204;DHT22;23098;48.054;10.636;2023-03-11T03:05:11;1.00;99.90
37204;DHT22;23098;48.054;10.636;2023-03-11T03:07:37;1.10;99.90
37204;DHT22;23098;48.054;10.636;2023-03-11T03:10:04;1.00;99.90
37204;DHT22;23098;48.054;10.636;2023-03-11T03:12:30;1.00;99.90
37204;DHT22;23098;48.054;10.636;2023-03-11T03:14:56;1.00;99.90
37204;DHT22;23098;48.054;10.636;2023-03-11T03:17:23;0.90;99.90
37204;DHT22;23098;48.054;10.636;2023-03-11T03:19:48;0.90;99.90
37204;DHT22;23098;48.054;10.636;2023-03-11T03:22:14;0.90;99.90
37204;DHT22;23098;48.054;10.636;2023-03-11T03:24:39;0.90;99.90
37204;DHT22;23098;48.054;10.636;2023-03-11T03:27:05;0.90;99.90
37204;DHT22;23098;48.054;10.636;2023-03-11T03:29:31;0.90;99.90
37204;DHT22;23098;48.054;10.636;2023-03-11T03:31:56;1.00;99.90
37204;DHT22;23098;48.054;10.636;2023-03-11T03:34:22;1.00;99.90
37204;DHT22;23098;48.054;10.636;2023-03-11T03:36:47;1.00;99.90
37204;DHT22;23098;48.054;10.636;2023-03-11T03:39:13;1.00;99.90
37204;DHT22;23098;48.054;10.636;2023-03-11T03:41:39;1.00;99.90
37204;DHT22;23098;48.054;10.636;2023-03-11T03:44:04;1.00;99.90
37204;DHT22;23098;48.054;10.636;2023-03-11T03:46:30;1.00;99.90
37204;DHT22;23098;48.054;10.636;2023-03-11T03:48:55;1.00;99.90
37204;DHT22;23098;48.054;10.636;2023-03-11T03:51:21;1.00;99.90
37204;DHT22;23098;48.054;10.636;2023-03-11T03:53:46;1.00;99.90
37204;DHT22;23098;48.054;10.636;2023-03-11T03:56:15;1.00;99.90
37204;DHT22;23098;48.054;10.636;2023-03-11T03:58:41;1.00;99.90
37204;DHT22;23098;48.054;10.636;2023-03-11T04:01:07;0.90;99.90
37204;DHT22;23098;48.054;10.636;2023-03-11T04:03:33;0.90;99.90
37204;DHT22;23098;48.054;10.636;2023-03-11T04:06:29;0.90;99.90
37204;DHT22;23098;48.054;10.636;2023-03-11T04:08:55;0.90;99.90
37204;DHT22;23098;48.054;10.636;2023-03-11T04:11:21;0.80;99.90
37204;DHT22;23098;48.054;10.636;2023-03-11T04:13:46;0.80;99.90
37204;DHT22;23098;48.054;10.636;2023-03-11T04:16:16;0.80;99.90
37204;DHT22;23098;48.054;10.636;2023-03-11T04:18:42;0.80;99.90
37204;DHT22;23098;48.054;10.636;2023-03-11T04:21:08;0.80;99.90
37204;DHT22;23098;48.054;10.636;2023-03-11T04:23:33;0.80;99.90
37204;DHT22;23098;48.054;10.636;2023-03-11T04:25:59;0.80;99.90
37204;DHT22;23098;48.054;10.636;2023-03-11T04:28:25;0.70;99.90
37204;DHT22;23098;48.054;10.636;2023-03-11T04:30:50;0.60;99.90
37204;DHT22;23098;48.054;10.636;2023-03-11T04:33:16;0.60;99.90
37204;DHT22;23098;48.054;10.636;2023-03-11T04:35:42;0.70;99.90
37204;DHT22;23098;48.054;10.636;2023-03-11T04:38:07;0.60;99.90
37204;DHT22;23098;48.054;10.636;2023-03-11T04:40:33;0.60;99.90
37204;DHT22;23098;48.054;10.636;2023-03-11T04:42:58;0.50;99.90
37204;DHT22;23098;48.054;10.636;2023-03-11T04:45:24;0.50;99.90
37204;DHT22;23098;48.054;10.636;2023-03-11T04:47:50;0.50;99.90
37204;DHT22;23098;48.054;10.636;2023-03-11T04:50:16;0.40;99.90
37204;DHT22;23098;48.054;10.636;2023-03-11T04:52:42;0.40;99.90
37204;DHT22;23098;48.054;10.636;2023-03-11T04:55:08;0.40;99.90
37204;DHT22;23098;48.054;10.636;2023-03-11T04:57:34;0.40;99.90
37204;DHT22;23098;48.054;10.636;2023-03-11T05:00:00;0.40;99.90
37204;DHT22;23098;48.054;10.636;2023-03-11T05:02:25;0.40;99.90
37204;DHT22;23098;48.054;10.636;2023-03-11T05:04:51;0.30;99.90
37204;DHT22;23098;48.054;10.636;2023-03-11T05:07:16;0.30;99.90
37204;DHT22;23098;48.054;10.636;2023-03-11T05:09:42;0.30;99.90
37204;DHT22;23098;48.054;10.636;2023-03-11T05:12:10;0.30;99.90
37204;DHT22;23098;48.054;10.636;2023-03-11T05:14:36;0.30;99.90
37204;DHT22;23098;48.054;10.636;2023-03-11T05:17:02;0.30;99.90
37204;DHT22;23098;48.054;10.636;2023-03-11T05:19:27;0.20;99.90
37204;DHT22;23098;48.054;10.636;2023-03-11T05:21:56;0.20;99.90
37204;DHT22;23098;48.054;10.636;2023-03-11T05:24:22;0.10;99.90
37204;DHT22;23098;48.054;10.636;2023-03-11T05:26:48;0.10;99.90
37204;DHT22;23098;48.054;10.636;2023-03-11T05:29:13;0.10;99.90
37204;DHT22;23098;48.054;10.636;2023-03-11T05:31:39;0.10;99.90
37204;DHT22;23098;48.054;10.636;2023-03-11T05:34:04;0.10;99.90
37204;DHT22;23098;48.054;10.636;2023-03-11T05:36:30;0.00;99.90
37204;DHT22;23098;48.054;10.636;2023-03-11T05:38:56;0.00;99.90
37204;DHT22;23098;48.054;10.636;2023-03-11T05:41:21;0.00;99.90
37204;DHT22;23098;48.054;10.636;2023-03-11T05:43:47;0.00;99.90
37204;DHT22;23098;48.054;10.636;2023-03-11T05:46:12;0.00;99.90
37204;DHT22;23098;48.054;10.636;2023-03-11T05:48:38;0.00;99.90
37204;DHT22;23098;48.054;10.636;2023-03-11T05:51:08;0.00;99.90
37204;DHT22;23098;48.054;10.636;2023-03-11T05:53:34;0.00;99.90
37204;DHT22;23098;48.054;10.636;2023-03-11T05:56:00;0.00;99.90
37204;DHT22;23098;48.054;10.636;2023-03-11T05:58:27;0.00;99.90
37204;DHT22;23098;48.054;10.636;2023-03-11T06:00:53;0.00;99.90
37204;DHT22;23098;48.054;10.636;2023-03-11T06:03:19;0.00;99.90
37204;DHT22;23098;48.054;10.636;2023-03-11T06:05:46;0.00;99.90
37204;DHT22;23098;48.054;10.636;2023-03-11T06:08:13;0.00;99.90
37204;DHT22;23098;48.054;10.636;2023-03-11T06:10:39;0.00;99.90
37204;DHT22;23098;48.054;10.636;2023-03-11T06:13:04;0.00;99.90
37204;DHT22;23098;48.054;10.636;2023-03-11T06:15:32;0.00;99.90
37204;DHT22;23098;48.054;10.636;2023-03-11T06:17:57;0.00;99.90
37204;DHT22;23098;48.054;10.636;2023-03-11T06:20:24;0.00;99.90
37204;DHT22;23098;48.054;10.636;2023-03-11T06:22:50;0.00;99.90
37204;DHT22;23098;48.054;10.636;2023-03-11T06:25:15;0.10;99.90
37204;DHT22;23098;48.054;10.636;2023-03-11T06:27:41;0.20;99.90
37204;DHT22;23098;48.054;10.636;2023-03-11T06:30:07;0.20;99.90
37204;DHT22;23098;48.054;10.636;2023-03-11T06:32:32;0.30;99.90
37204;DHT22;23098;48.054;10.636;2023-03-11T06:34:59;0.50;99.90
37204;DHT22;23098;48.054;10.636;2023-03-11T06:37:25;0.60;99.90
37204;DHT22;23098;48.054;10.636;2023-03-11T06:39:51;0.60;99.90
37204;DHT22;23098;48.054;10.636;2023-03-11T06:42:17;0.70;99.90
37204;DHT22;23098;48.054;10.636;2023-03-11T06:44:43;0.50;99.90
37204;DHT22;23098;48.054;10.636;2023-03-11T06:47:10;0.50;99.90
37204;DHT22;23098;48.054;10.636;2023-03-11T06:49:37;0.30;99.90
37204;DHT22;23098;48.054;10.636;2023-03-11T06:52:05;0.40;99.90
37204;DHT22;23098;48.054;10.636;2023-03-11T06:54:31;0.60;99.90
37204;DHT22;23098;48.054;10.636;2023-03-11T06:56:56;0.60;99.90
37204;DHT22;23098;48.054;10.636;2023-03-11T06:59:22;0.30;99.90
37204;DHT22;23098;48.054;10.636;2023-03-11T07:01:50;0.20;99.90
37204;DHT22;23098;48.054;10.636;2023-03-11T07:04:24;0.20;99.90
37204;DHT22;23098;48.054;10.636;2023-03-11T07:09:25;0.30;99.90
37204;DHT22;23098;48.054;10.636;2023-03-11T07:17:01;0.60;99.90
37204;DHT22;23098;48.054;10.636;2023-03-11T07:19:26;0.70;99.90
37204;DHT22;23098;48.054;10.636;2023-03-11T07:21:53;0.70;99.90
37204;DHT22;23098;48.054;10.636;2023-03-11T07:24:21;0.60;99.90
37204;DHT22;23098;48.054;10.636;2023-03-11T07:26:47;0.50;99.90
37204;DHT22;23098;48.054;10.636;2023-03-11T07:29:14;0.30;99.90
37204;DHT22;23098;48.054;10.636;2023-03-11T07:31:41;0.20;99.90
37204;DHT22;23098;48.054;10.636;2023-03-11T07:45:09;0.50;99.90
37204;DHT22;23098;48.054;10.636;2023-03-11T07:47:35;0.70;99.90
37204;DHT22;23098;48.054;10.636;2023-03-11T07:52:36;0.60;99.90
37204;DHT22;23098;48.054;10.636;2023-03-11T08:05:17;1.10;99.90
37204;DHT22;23098;48.054;10.636;2023-03-11T08:07:45;0.80;99.90
37204;DHT22;23098;48.054;10.636;2023-03-11T08:10:11;0.70;99.90
37204;DHT22;23098;48.054;10.636;2023-03-11T08:12:37;0.70;99.90
37204;DHT22;23098;48.054;10.636;2023-03-11T08:15:03;0.60;99.90
37204;DHT22;23098;48.054;10.636;2023-03-11T08:17:29;0.90;99.90
37204;DHT22;23098;48.054;10.636;2023-03-11T08:19:54;1.10;99.90
37204;DHT22;23098;48.054;10.636;2023-03-11T08:22:20;1.10;99.90
37204;DHT22;23098;48.054;10.636;2023-03-11T08:24:50;1.20;99.90
37204;DHT22;23098;48.054;10.636;2023-03-11T08:27:16;1.10;99.80
37204;DHT22;23098;48.054;10.636;2023-03-11T08:29:41;0.90;99.90
37204;DHT22;23098;48.054;10.636;2023-03-11T08:32:07;1.00;99.90
37204;DHT22;23098;48.054;10.636;2023-03-11T08:34:32;0.80;99.90
37204;DHT22;23098;48.054;10.636;2023-03-11T08:36:59;0.60;99.90
37204;DHT22;23098;48.054;10.636;2023-03-11T08:39:25;1.00;99.90
37204;DHT22;23098;48.054;10.636;2023-03-11T08:41:50;1.10;99.90
37204;DHT22;23098;48.054;10.636;2023-03-11T08:44:16;1.00;99.90
37204;DHT22;23098;48.054;10.636;2023-03-11T08:46:41;1.00;99.90
37204;DHT22;23098;48.054;10.636;2023-03-11T08:49:07;1.10;99.90
37204;DHT22;23098;48.054;10.636;2023-03-11T08:51:34;1.30;99.70
37204;DHT22;23098;48.054;10.636;2023-03-11T08:54:00;1.30;99.40
37204;DHT22;23098;48.054;10.636;2023-03-11T08:56:25;1.50;99.40
37204;DHT22;23098;48.054;10.636;2023-03-11T08:58:51;1.50;99.40
37204;DHT22;23098;48.054;10.636;2023-03-11T09:01:17;1.60;99.30
37204;DHT22;23098;48.054;10.636;2023-03-11T09:03:44;1.60;99.40
37204;DHT22;23098;48.054;10.636;2023-03-11T09:06:12;1.70;99.00
37204;DHT22;23098;48.054;10.636;2023-03-11T09:08:39;2.10;99.00
37204;DHT22;23098;48.054;10.636;2023-03-11T09:11:05;2.10;98.70
37204;DHT22;23098;48.054;10.636;2023-03-11T09:13:31;1.90;99.20
37204;DHT22;23098;48.054;10.636;2023-03-11T09:15:57;1.90;98.70
37204;DHT22;23098;48.054;10.636;2023-03-11T09:18:23;2.10;99.10
37204;DHT22;23098;48.054;10.636;2023-03-11T09:20:48;2.00;99.00
37204;DHT22;23098;48.054;10.636;2023-03-11T09:23:16;2.10;99.10
37204;DHT22;23098;48.054;10.636;2023-03-11T09:25:42;2.30;99.30
37204;DHT22;23098;48.054;10.636;2023-03-11T09:28:07;2.00;99.50
37204;DHT22;23098;48.054;10.636;2023-03-11T09:30:33;2.20;98.90
37204;DHT22;23098;48.054;10.636;2023-03-11T09:33:00;2.30;99.10
37204;DHT22;23098;48.054;10.636;2023-03-11T09:35:25;1.70;98.30
37204;DHT22;23098;48.054;10.636;2023-03-11T09:37:51;1.80;98.60
37204;DHT22;23098;48.054;10.636;2023-03-11T09:40:21;2.20;99.00
37204;DHT22;23098;48.054;10.636;2023-03-11T09:46:17;2.70;97.90
37204;DHT22;23098;48.054;10.636;2023-03-11T09:48:40;2.50;98.10
37204;DHT22;23098;48.054;10.636;2023-03-11T09:51:22;2.90;97.90
37204;DHT22;23098;48.054;10.636;2023-03-11T09:53:54;2.80;97.60
37204;DHT22;23098;48.054;10.636;2023-03-11T09:56:21;3.10;98.10
37204;DHT22;23098;48.054;10.636;2023-03-11T09:58:49;3.40;97.70
37204;DHT22;23098;48.054;10.636;2023-03-11T10:01:22;3.10;97.20
37204;DHT22;23098;48.054;10.636;2023-03-11T10:03:50;3.10;97.10
37204;DHT22;23098;48.054;10.636;2023-03-11T10:25:07;3.90;96.60
37204;DHT22;23098;48.054;10.636;2023-03-11T10:27:47;3.50;96.10
37204;DHT22;23098;48.054;10.636;2023-03-11T10:35:38;4.00;95.00
37204;DHT22;23098;48.054;10.636;2023-03-11T10:38:14;3.80;95.80
37204;DHT22;23098;48.054;10.636;2023-03-11T10:40:43;3.90;94.50
37204;DHT22;23098;48.054;10.636;2023-03-11T10:43:13;4.20;95.20
37204;DHT22;23098;48.054;10.636;2023-03-11T10:45:41;4.30;95.90
37204;DHT22;23098;48.054;10.636;2023-03-11T10:48:17;4.70;95.80
37204;DHT22;23098;48.054;10.636;2023-03-11T10:50:51;4.40;94.80
37204;DHT22;23098;48.054;10.636;2023-03-11T10:53:19;4.30;94.70
37204;DHT22;23098;48.054;10.636;2023-03-11T10:55:51;4.60;93.30
37204;DHT22;23098;48.054;10.636;2023-03-11T10:58:26;4.20;92.90
37204;DHT22;23098;48.054;10.636;2023-03-11T11:03:25;4.10;94.50
37204;DHT22;23098;48.054;10.636;2023-03-11T11:06:02;4.20;92.40
37204;DHT22;23098;48.054;10.636;2023-03-11T11:08:28;4.60;93.70
37204;DHT22;23098;48.054;10.636;2023-03-11T11:11:19;4.40;92.50
37204;DHT22;23098;48.054;10.636;2023-03-11T11:14:11;4.20;92.70
37204;DHT22;23098;48.054;10.636;2023-03-11T15:06:07;7.30;90.10
37204;DHT22;23098;48.054;10.636;2023-03-11T16:49:44;4.20;92.90
37204;DHT22;23098;48.054;10.636;2023-03-11T16:52:10;4.10;93.10
37204;DHT22;23098;48.054;10.636;2023-03-11T16:54:35;4.20;93.30
37204;DHT22;23098;48.054;10.636;2023-03-11T16:57:01;4.20;93.40
37204;DHT22;23098;48.054;10.636;2023-03-11T16:59:27;4.20;93.40
37204;DHT22;23098;48.054;10.636;2023-03-11T17:01:52;4.10;93.10
37204;DHT22;23098;48.054;10.636;2023-03-11T17:04:18;4.00;93.70
37204;DHT22;23098;48.054;10.636;2023-03-11T17:06:44;4.00;94.10
37204;DHT22;23098;48.054;10.636;2023-03-11T17:09:09;3.90;93.20
37204;DHT22;23098;48.054;10.636;2023-03-11T17:11:35;3.90;93.60
37204;DHT22;23098;48.054;10.636;2023-03-11T17:14:00;3.90;93.60
37204;DHT22;23098;48.054;10.636;2023-03-11T17:16:26;3.80;93.90
37204;DHT22;23098;48.054;10.636;2023-03-11T17:18:51;3.80;94.40
37204;DHT22;23098;48.054;10.636;2023-03-11T17:21:17;3.80;94.30
37204;DHT22;23098;48.054;10.636;2023-03-11T17:23:43;3.80;94.00
37204;DHT22;23098;48.054;10.636;2023-03-11T17:26:14;3.70;94.70
37204;DHT22;23098;48.054;10.636;2023-03-11T17:28:41;3.70;94.60
37204;DHT22;23098;48.054;10.636;2023-03-11T17:31:14;3.70;94.80
37204;DHT22;23098;48.054;10.636;2023-03-11T17:33:40;3.60;94.60
37204;DHT22;23098;48.054;10.636;2023-03-11T17:36:07;3.60;94.30
37204;DHT22;23098;48.054;10.636;2023-03-11T17:38:33;3.60;94.40
37204;DHT22;23098;48.054;10.636;2023-03-11T17:40:59;3.60;95.30
37204;DHT22;23098;48.054;10.636;2023-03-11T17:43:24;3.50;95.50
37204;DHT22;23098;48.054;10.636;2023-03-11T17:45:50;3.40;94.80
37204;DHT22;23098;48.054;10.636;2023-03-11T17:48:16;3.50;95.60
37204;DHT22;23098;48.054;10.636;2023-03-11T17:50:41;3.30;95.40
37204;DHT22;23098;48.054;10.636;2023-03-11T17:53:07;3.20;95.40
37204;DHT22;23098;48.054;10.636;2023-03-11T17:55:37;3.20;95.50
37204;DHT22;23098;48.054;10.636;2023-03-11T17:58:03;3.20;95.30
37204;DHT22;23098;48.054;10.636;2023-03-11T18:00:28;3.10;95.40
37204;DHT22;23098;48.054;10.636;2023-03-11T18:02:54;3.10;95.30
37204;DHT22;23098;48.054;10.636;2023-03-11T18:05:20;3.10;95.10
37204;DHT22;23098;48.054;10.636;2023-03-11T18:07:45;3.00;95.50
37204;DHT22;23098;48.054;10.636;2023-03-11T18:10:12;3.00;95.90
37204;DHT22;23098;48.054;10.636;2023-03-11T18:12:42;2.90;95.60
37204;DHT22;23098;48.054;10.636;2023-03-11T18:15:08;2.90;96.40
37204;DHT22;23098;48.054;10.636;2023-03-11T18:17:38;2.90;96.40
37204;DHT22;23098;48.054;10.636;2023-03-11T18:20:04;2.90;96.30
37204;DHT22;23098;48.054;10.636;2023-03-11T18:22:30;2.90;97.10
37204;DHT22;23098;48.054;10.636;2023-03-11T18:24:56;2.80;97.10
37204;DHT22;23098;48.054;10.636;2023-03-11T18:27:27;2.80;96.20
37204;DHT22;23098;48.054;10.636;2023-03-11T18:35:04;2.80;96.80
37204;DHT22;23098;48.054;10.636;2023-03-11T18:37:31;2.80;97.00
37204;DHT22;23098;48.054;10.636;2023-03-11T18:39:57;2.80;96.60
37204;DHT22;23098;48.054;10.636;2023-03-11T18:42:23;2.80;97.00
37204;DHT22;23098;48.054;10.636;2023-03-11T18:44:50;2.80;97.10
37204;DHT22;23098;48.054;10.636;2023-03-11T18:47:15;2.80;97.20
37204;DHT22;23098;48.054;10.636;2023-03-11T18:49:43;2.80;97.70
37204;DHT22;23098;48.054;10.636;2023-03-11T18:52:09;2.80;97.10
37204;DHT22;23098;48.054;10.636;2023-03-11T18:54:35;2.70;97.50
37204;DHT22;23098;48.054;10.636;2023-03-11T18:57:04;2.70;96.90
37204;DHT22;23098;48.054;10.636;2023-03-11T18:59:30;2.70;97.10
37204;DHT22;23098;48.054;10.636;2023-03-11T19:01:56;2.70;97.30
37204;DHT22;23098;48.054;10.636;2023-03-11T19:04:21;2.70;98.10
37204;DHT22;23098;48.054;10.636;2023-03-11T19:06:47;2.70;98.30
37204;DHT22;23098;48.054;10.636;2023-03-11T19:09:14;2.70;97.80
37204;DHT22;23098;48.054;10.636;2023-03-11T19:11:43;2.70;98.40
37204;DHT22;23098;48.054;10.636;2023-03-11T19:14:10;2.70;98.50
37204;DHT22;23098;48.054;10.636;2023-03-11T19:16:36;2.70;98.70
37204;DHT22;23098;48.054;10.636;2023-03-11T19:19:04;2.60;98.50
37204;DHT22;23098;48.054;10.636;2023-03-11T19:21:50;2.60;98.60
37204;DHT22;23098;48.054;10.636;2023-03-11T19:24:15;2.60;99.10
37204;DHT22;23098;48.054;10.636;2023-03-11T19:26:42;2.50;99.30
37204;DHT22;23098;48.054;10.636;2023-03-11T19:29:08;2.50;99.00
37204;DHT22;23098;48.054;10.636;2023-03-11T19:31:37;2.60;99.00
37204;DHT22;23098;48.054;10.636;2023-03-11T19:34:11;2.60;98.70
37204;DHT22;23098;48.054;10.636;2023-03-11T19:37:03;2.60;98.50
37204;DHT22;23098;48.054;10.636;2023-03-11T19:39:38;2.60;98.60
37204;DHT22;23098;48.054;10.636;2023-03-11T19:42:03;2.60;98.10
37204;DHT22;23098;48.054;10.636;2023-03-11T19:44:31;2.60;98.10
37204;DHT22;23098;48.054;10.636;2023-03-11T19:46:56;2.50;98.10
37204;DHT22;23098;48.054;10.636;2023-03-11T19:49:25;2.50;98.70
37204;DHT22;23098;48.054;10.636;2023-03-11T19:51:56;2.50;98.40
37204;DHT22;23098;48.054;10.636;2023-03-11T19:54:48;2.40;98.50
37204;DHT22;23098;48.054;10.636;2023-03-11T19:57:15;2.40;98.30
37204;DHT22;23098;48.054;10.636;2023-03-11T20:00:22;2.40;98.30
37204;DHT22;23098;48.054;10.636;2023-03-11T20:02:48;2.40;98.30
37204;DHT22;23098;48.054;10.636;2023-03-11T20:13:19;2.20;98.50
37204;DHT22;23098;48.054;10.636;2023-03-11T20:15:45;2.10;98.70
37204;DHT22;23098;48.054;10.636;2023-03-11T20:18:11;2.20;98.80
37204;DHT22;23098;48.054;10.636;2023-03-11T20:20:38;2.20;99.40
37204;DHT22;23098;48.054;10.636;2023-03-11T20:23:10;2.20;99.10
37204;DHT22;23098;48.054;10.636;2023-03-11T20:25:41;2.20;99.20
37204;DHT22;23098;48.054;10.636;2023-03-11T20:28:06;2.30;99.40
37204;DHT22;23098;48.054;10.636;2023-03-11T20:30:32;2.30;99.40
37204;DHT22;23098;48.054;10.636;2023-03-11T20:32:58;2.20;99.50
37204;DHT22;23098;48.054;10.636;2023-03-11T20:35:25;2.20;99.80
37204;DHT22;23098;48.054;10.636;2023-03-11T20:37:51;2.20;99.80
37204;DHT22;23098;48.054;10.636;2023-03-11T20:40:17;2.20;99.60
37204;DHT22;23098;48.054;10.636;2023-03-11T20:42:43;2.20;99.90
37204;DHT22;23098;48.054;10.636;2023-03-11T20:45:12;2.20;99.70
37204;DHT22;23098;48.054;10.636;2023-03-11T20:47:56;2.10;99.80
37204;DHT22;23098;48.054;10.636;2023-03-11T20:50:44;2.00;99.90
37204;DHT22;23098;48.054;10.636;2023-03-11T20:53:18;2.00;99.70
37204;DHT22;23098;48.054;10.636;2023-03-11T20:56:10;2.00;99.90
37204;DHT22;23098;48.054;10.636;2023-03-11T20:58:37;2.00;99.90
37204;DHT22;23098;48.054;10.636;2023-03-11T21:01:32;2.00;99.70
37204;DHT22;23098;48.054;10.636;2023-03-11T21:04:00;2.10;99.90
37204;DHT22;23098;48.054;10.636;2023-03-11T21:06:30;2.00;99.90
37204;DHT22;23098;48.054;10.636;2023-03-11T21:08:59;2.00;99.90
37204;DHT22;23098;48.054;10.636;2023-03-11T21:11:25;2.00;99.90
37204;DHT22;23098;48.054;10.636;2023-03-11T21:13:52;2.00;99.90
37204;DHT22;23098;48.054;10.636;2023-03-11T21:16:18;2.00;99.90
37204;DHT22;23098;48.054;10.636;2023-03-11T21:18:46;2.00;99.90
37204;DHT22;23098;48.054;10.636;2023-03-11T21:21:13;2.00;99.90
37204;DHT22;23098;48.054;10.636;2023-03-11T21:23:40;1.90;99.90
37204;DHT22;23098;48.054;10.636;2023-03-11T21:26:07;1.90;99.90
37204;DHT22;23098;48.054;10.636;2023-03-11T21:28:34;1.90;99.90
37204;DHT22;23098;48.054;10.636;2023-03-11T21:31:19;1.90;99.90
37204;DHT22;23098;48.054;10.636;2023-03-11T21:33:45;1.90;99.90
37204;DHT22;23098;48.054;10.636;2023-03-11T21:36:14;1.90;99.90
37204;DHT22;23098;48.054;10.636;2023-03-11T21:38:40;1.90;99.90
37204;DHT22;23098;48.054;10.636;2023-03-11T21:41:14;1.90;99.90
37204;DHT22;23098;48.054;10.636;2023-03-11T21:43:40;1.90;99.90
37204;DHT22;23098;48.054;10.636;2023-03-11T21:46:08;1.90;99.90
37204;DHT22;23098;48.054;10.636;2023-03-11T21:48:34;1.90;99.90
37204;DHT22;23098;48.054;10.636;2023-03-11T21:51:01;1.90;99.90
37204;DHT22;23098;48.054;10.636;2023-03-11T21:53:29;1.80;99.90
37204;DHT22;23098;48.054;10.636;2023-03-11T21:55:55;1.90;99.90
37204;DHT22;23098;48.054;10.636;2023-03-11T21:58:22;1.80;99.90
37204;DHT22;23098;48.054;10.636;2023-03-11T22:00:47;1.80;99.90
37204;DHT22;23098;48.054;10.636;2023-03-11T22:03:13;1.80;99.90
37204;DHT22;23098;48.054;10.636;2023-03-11T22:05:39;1.90;99.90
37204;DHT22;23098;48.054;10.636;2023-03-11T22:08:04;1.90;99.90
37204;DHT22;23098;48.054;10.636;2023-03-11T22:10:30;1.90;99.90
37204;DHT22;23098;48.054;10.636;2023-03-11T22:12:56;1.80;99.90
37204;DHT22;23098;48.054;10.636;2023-03-11T22:15:22;1.80;99.90
37204;DHT22;23098;48.054;10.636;2023-03-11T22:17:48;1.80;99.90
37204;DHT22;23098;48.054;10.636;2023-03-11T22:20:13;1.80;99.90
37204;DHT22;23098;48.054;10.636;2023-03-11T22:22:39;1.80;99.90